createdAt,value
2018-10-03T00:01:54.999Z,11.30
2018-10-03T00:04:24.646Z,11.30
2018-10-03T00:06:54.098Z,11.30
2018-10-03T00:09:24.245Z,11.30
2018-10-03T00:11:53.897Z,11.30
2018-10-03T00:14:23.409Z,11.30
2018-10-03T00:16:53.673Z,11.30
2018-10-03T00:19:23.701Z,11.30
2018-10-03T00:21:53.197Z,11.30
2018-10-03T00:24:23.500Z,11.30
2018-10-03T00:26:53.463Z,11.30
2018-10-03T00:29:22.979Z,11.40
2018-10-03T00:31:54.471Z,11.40
2018-10-03T00:34:23.971Z,11.40
2018-10-03T00:36:53.515Z,11.30
2018-10-03T00:39:23.757Z,11.30
2018-10-03T00:41:53.240Z,11.30
2018-10-03T00:44:22.909Z,11.30
2018-10-03T00:46:52.456Z,11.30
2018-10-03T00:49:21.969Z,11.30
2018-10-03T00:51:52.485Z,11.30
2018-10-03T00:54:22.140Z,11.30
2018-10-03T00:56:52.876Z,11.20
2018-10-03T00:59:22.970Z,11.20
2018-10-03T01:01:52.566Z,11.20
2018-10-03T01:04:22.140Z,11.20
2018-10-03T01:06:53.094Z,11.20
2018-10-03T01:09:22.825Z,11.20
2018-10-03T01:11:52.586Z,11.20
2018-10-03T01:14:22.886Z,11.10
2018-10-03T01:16:52.406Z,11.10
2018-10-03T01:19:22.227Z,11.10
2018-10-03T01:21:51.864Z,11.10
2018-10-03T01:24:22.285Z,11.10
2018-10-03T01:26:52.400Z,11.10
2018-10-03T01:29:22.212Z,11.10
2018-10-03T01:31:51.847Z,11.10
2018-10-03T01:34:21.404Z,11.10
2018-10-03T01:36:51.148Z,11.10
2018-10-03T01:39:20.753Z,11.10
2018-10-03T01:41:50.637Z,11.10
2018-10-03T01:44:20.871Z,11.10
2018-10-03T01:46:50.600Z,11.10
2018-10-03T01:49:20.865Z,11.20
2018-10-03T01:51:50.611Z,11.20
2018-10-03T01:54:20.269Z,11.20
2018-10-03T01:56:50.433Z,11.20
2018-10-03T01:59:20.196Z,11.20
2018-10-03T02:01:50.847Z,11.20
2018-10-03T02:04:21.544Z,11.20
2018-10-03T02:06:51.900Z,11.20
2018-10-03T02:09:21.804Z,11.20
2018-10-03T02:11:51.466Z,11.20
2018-10-03T02:14:21.056Z,11.30
2018-10-03T02:16:50.908Z,11.30
2018-10-03T02:19:20.481Z,11.30
2018-10-03T02:21:50.838Z,11.30
2018-10-03T02:24:20.964Z,11.30
2018-10-03T02:26:50.578Z,11.30
2018-10-03T02:29:20.838Z,11.30
2018-10-03T02:31:50.644Z,11.40
2018-10-03T02:34:20.256Z,11.40
2018-10-03T02:36:49.949Z,11.40
2018-10-03T02:39:21.238Z,11.40
2018-10-03T02:41:52.350Z,11.40
2018-10-03T02:44:22.640Z,11.30
2018-10-03T02:46:52.242Z,11.40
2018-10-03T02:49:21.902Z,11.30
2018-10-03T02:51:51.975Z,11.40
2018-10-03T02:54:21.505Z,11.40
2018-10-03T02:56:51.031Z,11.40
2018-10-03T02:59:20.495Z,11.40
2018-10-03T03:01:50.257Z,11.30
2018-10-03T03:04:20.491Z,11.30
2018-10-03T03:06:50.978Z,11.30
2018-10-03T03:09:20.611Z,11.30
2018-10-03T03:11:51.198Z,11.30
2018-10-03T03:14:21.041Z,11.30
2018-10-03T03:16:50.615Z,11.30
2018-10-03T03:19:20.829Z,11.30
2018-10-03T03:21:51.449Z,11.30
2018-10-03T03:24:21.896Z,11.30
2018-10-03T03:26:51.536Z,11.30
2018-10-03T03:29:21.191Z,11.30
2018-10-03T03:31:51.316Z,11.30
2018-10-03T03:34:20.942Z,11.30
2018-10-03T03:36:50.982Z,11.30
2018-10-03T03:39:20.682Z,11.30
2018-10-03T03:41:50.836Z,11.30
2018-10-03T03:44:21.060Z,11.30
2018-10-03T03:46:51.830Z,11.30
2018-10-03T03:49:21.306Z,11.30
2018-10-03T03:51:50.927Z,11.30
2018-10-03T03:54:20.494Z,11.30
2018-10-03T03:56:50.118Z,11.30
2018-10-03T03:59:19.718Z,11.30
2018-10-03T04:01:49.323Z,11.40
2018-10-03T04:04:19.287Z,11.40
2018-10-03T04:06:49.263Z,11.40
2018-10-03T04:09:19.888Z,11.40
2018-10-03T04:11:49.459Z,11.40
2018-10-03T04:14:18.915Z,11.40
2018-10-03T04:16:48.536Z,11.40
2018-10-03T04:19:18.037Z,11.40
2018-10-03T04:21:48.515Z,11.40
2018-10-03T04:24:18.662Z,11.40
2018-10-03T04:26:48.130Z,11.40
2018-10-03T04:29:17.858Z,11.50
2018-10-03T04:31:48.519Z,11.50
2018-10-03T04:34:17.858Z,11.50
2018-10-03T04:36:47.218Z,11.50
2018-10-03T04:39:16.947Z,11.50
2018-10-03T04:41:46.434Z,11.50
2018-10-03T04:44:16.884Z,11.50
2018-10-03T04:46:47.221Z,11.50
2018-10-03T04:49:16.928Z,11.50
2018-10-03T04:51:46.804Z,11.50
2018-10-03T04:54:18.140Z,11.40
2018-10-03T04:56:48.528Z,11.50
2018-10-03T04:59:18.190Z,11.40
2018-10-03T05:01:48.436Z,11.50
2018-10-03T05:04:17.997Z,11.40
2018-10-03T05:06:47.488Z,11.50
2018-10-03T05:09:17.403Z,11.40
2018-10-03T05:11:47.644Z,11.40
2018-10-03T05:14:17.474Z,11.40
2018-10-03T05:16:46.935Z,11.40
2018-10-03T05:19:16.310Z,11.40
2018-10-03T05:21:45.824Z,11.40
2018-10-03T05:24:15.910Z,11.40
2018-10-03T05:26:45.492Z,11.40
2018-10-03T05:29:15.213Z,11.40
2018-10-03T05:31:44.771Z,11.40
2018-10-03T05:34:14.207Z,11.40
2018-10-03T05:36:44.469Z,11.50
2018-10-03T05:39:14.485Z,11.50
2018-10-03T05:41:45.375Z,11.50
2018-10-03T05:44:14.927Z,11.60
2018-10-03T05:46:44.592Z,11.60
2018-10-03T05:49:14.146Z,11.60
2018-10-03T05:51:43.646Z,11.60
2018-10-03T05:54:14.086Z,11.60
2018-10-03T05:56:43.512Z,11.60
2018-10-03T05:59:13.690Z,11.60
2018-10-03T06:01:43.362Z,11.70
2018-10-03T06:04:13.088Z,11.70
2018-10-03T06:06:42.558Z,11.70
2018-10-03T06:09:13.294Z,11.80
2018-10-03T06:11:43.272Z,11.80
2018-10-03T06:14:13.005Z,11.80
2018-10-03T06:16:42.702Z,11.90
2018-10-03T06:19:12.588Z,11.90
2018-10-03T06:21:42.218Z,11.90
2018-10-03T06:24:11.764Z,12.00
2018-10-03T06:26:41.534Z,12.00
2018-10-03T06:29:11.513Z,12.10
2018-10-03T06:31:41.198Z,12.10
2018-10-03T06:34:10.724Z,12.10
2018-10-03T06:36:44.883Z,12.20
2018-10-03T06:39:14.468Z,12.20
2018-10-03T06:41:44.693Z,12.30
2018-10-03T06:44:14.956Z,12.30
2018-10-03T06:46:44.513Z,12.30
2018-10-03T06:49:14.027Z,12.30
2018-10-03T06:51:45.295Z,12.30
2018-10-03T06:54:14.949Z,12.40
2018-10-03T06:56:45.261Z,12.40
2018-10-03T06:59:18.839Z,12.50
2018-10-03T07:01:49.148Z,12.50
2018-10-03T07:04:18.889Z,12.60
2018-10-03T07:06:48.618Z,12.60
2018-10-03T07:09:18.262Z,12.70
2018-10-03T07:11:47.792Z,12.70
2018-10-03T07:14:17.520Z,12.70
2018-10-03T07:16:47.111Z,12.80
2018-10-03T07:19:17.099Z,12.90
2018-10-03T07:21:46.948Z,12.90
2018-10-03T07:24:16.426Z,13.00
2018-10-03T07:26:45.958Z,13.00
2018-10-03T07:29:21.736Z,13.00
2018-10-03T07:31:51.912Z,13.10
2018-10-03T07:34:21.670Z,13.10
2018-10-03T07:36:51.342Z,13.10
2018-10-03T07:39:21.586Z,13.10
2018-10-03T07:41:51.204Z,13.10
2018-10-03T07:44:20.864Z,13.20
2018-10-03T07:46:50.592Z,13.30
2018-10-03T07:49:20.309Z,13.30
2018-10-03T07:51:50.892Z,13.30
2018-10-03T07:54:20.797Z,13.30
2018-10-03T07:56:51.138Z,13.30
2018-10-03T07:59:21.060Z,13.30
2018-10-03T08:01:51.349Z,13.20
2018-10-03T08:04:21.677Z,13.20
2018-10-03T08:06:51.969Z,13.20
2018-10-03T08:09:21.871Z,13.20
2018-10-03T08:11:51.490Z,13.20
2018-10-03T08:14:21.326Z,13.20
2018-10-03T08:16:51.554Z,13.30
2018-10-03T08:19:21.703Z,13.30
2018-10-03T08:21:51.886Z,13.40
2018-10-03T08:24:22.242Z,13.40
2018-10-03T08:26:51.698Z,13.50
2018-10-03T08:29:22.163Z,13.60
2018-10-03T08:31:51.843Z,13.60
2018-10-03T08:34:22.152Z,13.70
2018-10-03T08:36:51.824Z,13.80
2018-10-03T08:39:21.570Z,14.00
2018-10-03T08:41:51.592Z,14.10
2018-10-03T08:44:21.413Z,14.10
2018-10-03T08:46:51.604Z,14.20
2018-10-03T08:49:21.378Z,14.30
2018-10-03T08:51:50.864Z,14.40
2018-10-03T08:54:20.612Z,14.50
2018-10-03T08:56:50.291Z,14.60
2018-10-03T08:59:19.970Z,14.60
2018-10-03T09:01:50.300Z,14.60
2018-10-03T09:04:20.473Z,14.60
2018-10-03T09:06:50.018Z,14.70
2018-10-03T09:09:19.786Z,14.70
2018-10-03T09:11:49.277Z,14.70
2018-10-03T09:14:19.583Z,14.80
2018-10-03T09:16:50.424Z,14.90
2018-10-03T09:19:19.890Z,15.00
2018-10-03T09:21:49.838Z,15.20
2018-10-03T09:24:20.216Z,15.30
2018-10-03T09:26:49.763Z,15.50
2018-10-03T09:29:19.899Z,15.70
2018-10-03T09:31:50.303Z,15.70
2018-10-03T09:34:20.008Z,15.70
2018-10-03T09:36:50.248Z,15.70
2018-10-03T09:39:20.482Z,15.70
2018-10-03T09:41:50.123Z,15.60
2018-10-03T09:44:19.736Z,15.50
2018-10-03T09:46:51.632Z,15.30
2018-10-03T09:49:21.142Z,15.20
2018-10-03T09:51:51.395Z,15.10
2018-10-03T09:54:22.497Z,15.00
2018-10-03T09:56:52.885Z,14.90
2018-10-03T09:59:22.843Z,14.80
2018-10-03T10:01:52.353Z,14.80
2018-10-03T10:04:22.177Z,14.70
2018-10-03T10:06:51.749Z,14.60
2018-10-03T10:09:23.662Z,14.50
2018-10-03T10:11:53.354Z,14.40
2018-10-03T10:14:23.243Z,14.30
2018-10-03T10:16:55.342Z,14.20
2018-10-03T10:19:25.453Z,14.30
2018-10-03T10:21:55.153Z,14.30
2018-10-03T10:24:25.126Z,14.40
2018-10-03T10:26:54.976Z,14.50
2018-10-03T10:29:24.658Z,14.60
2018-10-03T10:31:54.406Z,14.60
2018-10-03T10:34:24.172Z,14.70
2018-10-03T10:36:53.652Z,14.70
2018-10-03T10:39:24.101Z,14.80
2018-10-03T10:41:54.093Z,14.80
2018-10-03T10:44:24.147Z,14.90
2018-10-03T10:46:53.955Z,15.00
2018-10-03T10:49:23.583Z,15.10
2018-10-03T10:51:54.419Z,15.30
2018-10-03T10:54:27.149Z,15.50
2018-10-03T10:56:56.911Z,15.50
2018-10-03T10:59:26.956Z,15.50
2018-10-03T11:01:56.450Z,15.40
2018-10-03T11:04:27.827Z,15.30
2018-10-03T11:06:57.853Z,15.20
2018-10-03T11:09:27.576Z,15.10
2018-10-03T11:11:57.655Z,15.10
2018-10-03T11:14:28.095Z,15.00
2018-10-03T11:16:57.694Z,15.00
2018-10-03T11:19:27.223Z,15.00
2018-10-03T11:21:57.325Z,14.90
2018-10-03T11:24:27.669Z,14.80
2018-10-03T11:26:57.150Z,14.70
2018-10-03T11:29:26.686Z,14.70
2018-10-03T11:31:56.218Z,14.60
2018-10-03T11:34:26.438Z,14.60
2018-10-03T11:36:56.579Z,14.60
2018-10-03T11:39:26.366Z,14.60
2018-10-03T11:41:56.094Z,14.50
2018-10-03T11:44:25.685Z,14.50
2018-10-03T11:46:56.190Z,14.50
2018-10-03T11:49:25.839Z,14.50
2018-10-03T11:51:55.993Z,14.50
2018-10-03T11:54:25.574Z,14.60
2018-10-03T11:56:55.265Z,14.60
2018-10-03T11:59:25.614Z,14.60
2018-10-03T12:01:55.359Z,14.60
2018-10-03T12:04:24.943Z,14.60
2018-10-03T12:06:55.243Z,14.60
2018-10-03T12:09:25.510Z,14.60
2018-10-03T12:11:55.715Z,14.60
2018-10-03T12:14:25.595Z,14.60
2018-10-03T12:16:55.163Z,14.60
2018-10-03T12:19:24.708Z,14.60
2018-10-03T12:21:55.028Z,14.60
2018-10-03T12:24:26.010Z,14.60
2018-10-03T12:26:55.727Z,14.50
2018-10-03T12:29:25.995Z,14.50
2018-10-03T12:31:56.065Z,14.50
2018-10-03T12:34:26.547Z,14.50
2018-10-03T12:36:57.357Z,14.50
2018-10-03T12:39:27.072Z,14.40
2018-10-03T12:41:56.727Z,14.40
2018-10-03T12:44:26.568Z,14.40
2018-10-03T12:46:57.328Z,14.40
2018-10-03T12:49:26.862Z,14.40
2018-10-03T12:51:56.978Z,14.50
2018-10-03T12:54:26.860Z,14.50
2018-10-03T12:56:57.064Z,14.60
2018-10-03T12:59:26.596Z,14.70
2018-10-03T13:01:56.189Z,14.70
2018-10-03T13:04:26.624Z,14.80
2018-10-03T13:06:56.522Z,14.90
2018-10-03T13:09:26.048Z,15.00
2018-10-03T13:11:55.647Z,15.10
2018-10-03T13:14:26.209Z,15.30
2018-10-03T13:16:55.932Z,15.60
2018-10-03T13:19:30.591Z,15.90
2018-10-03T13:22:00.616Z,16.10
2018-10-03T13:24:30.204Z,16.30
2018-10-03T13:27:00.255Z,16.60
2018-10-03T13:29:29.984Z,16.80
2018-10-03T13:31:59.713Z,17.10
2018-10-03T13:34:29.565Z,17.40
2018-10-03T13:36:59.194Z,17.40
2018-10-03T13:39:28.864Z,17.40
2018-10-03T13:41:58.461Z,17.40
2018-10-03T13:44:28.781Z,17.60
2018-10-03T13:46:59.227Z,17.90
2018-10-03T13:49:30.012Z,18.10
2018-10-03T13:52:00.345Z,18.30
2018-10-03T13:54:30.084Z,18.30
2018-10-03T13:57:00.277Z,18.30
2018-10-03T13:59:30.196Z,18.30
2018-10-03T14:01:59.741Z,18.40
2018-10-03T14:04:30.187Z,18.50
2018-10-03T14:07:00.144Z,18.70
2018-10-03T14:09:30.171Z,18.50
2018-10-03T14:12:00.190Z,18.30
2018-10-03T14:14:30.203Z,18.10
2018-10-03T14:16:59.661Z,17.80
2018-10-03T14:19:29.267Z,17.40
2018-10-03T14:22:00.211Z,17.10
2018-10-03T14:24:32.124Z,16.90
2018-10-03T14:27:01.875Z,16.70
2018-10-03T14:29:31.455Z,16.50
2018-10-03T14:32:01.092Z,16.30
2018-10-03T14:34:30.841Z,16.20
2018-10-03T14:37:00.449Z,16.00
2018-10-03T14:39:30.095Z,15.90
2018-10-03T14:41:59.829Z,15.70
2018-10-03T14:44:29.727Z,15.70
2018-10-03T14:47:00.288Z,15.70
2018-10-03T14:49:30.849Z,15.60
2018-10-03T14:52:00.466Z,15.60
2018-10-03T14:54:30.231Z,15.50
2018-10-03T14:57:01.107Z,15.50
2018-10-03T14:59:32.925Z,15.40
2018-10-03T15:02:03.280Z,15.40
2018-10-03T15:04:33.662Z,15.30
2018-10-03T15:07:08.355Z,15.30
2018-10-03T15:09:38.584Z,15.30
2018-10-03T15:12:08.536Z,15.20
2018-10-03T15:14:38.844Z,15.20
2018-10-03T15:17:10.244Z,15.20
2018-10-03T15:19:40.385Z,15.20
2018-10-03T15:22:10.874Z,15.20
2018-10-03T15:24:40.435Z,15.30
2018-10-03T15:27:11.143Z,15.40
2018-10-03T15:29:41.535Z,15.40
2018-10-03T15:32:12.773Z,15.50
2018-10-03T15:34:42.801Z,15.40
2018-10-03T15:37:14.245Z,15.40
2018-10-03T15:39:44.739Z,15.40
2018-10-03T15:42:15.027Z,15.40
2018-10-03T15:44:45.524Z,15.40
2018-10-03T15:47:15.926Z,15.40
2018-10-03T15:49:45.931Z,15.40
2018-10-03T15:52:15.509Z,15.30
2018-10-03T15:54:45.325Z,15.30
2018-10-03T15:57:14.954Z,15.30
2018-10-03T15:59:44.531Z,15.30
2018-10-03T16:02:15.095Z,15.30
2018-10-03T16:04:46.151Z,15.30
2018-10-03T16:07:16.979Z,15.20
2018-10-03T16:09:49.724Z,15.20
2018-10-03T16:12:20.457Z,15.10
2018-10-03T16:14:50.077Z,15.10
2018-10-03T16:17:20.388Z,15.00
2018-10-03T16:19:51.818Z,14.90
2018-10-03T16:22:22.368Z,14.80
2018-10-03T16:24:52.162Z,14.80
2018-10-03T16:27:22.669Z,14.70
2018-10-03T16:29:52.722Z,14.60
2018-10-03T16:32:22.800Z,14.60
2018-10-03T16:34:52.500Z,14.50
2018-10-03T16:37:22.259Z,14.50
2018-10-03T16:39:53.701Z,14.50
2018-10-03T16:42:23.914Z,14.40
2018-10-03T16:44:55.486Z,14.40
2018-10-03T16:47:26.027Z,14.50
2018-10-03T16:49:57.232Z,14.50
2018-10-03T16:52:27.525Z,14.50
2018-10-03T16:54:57.641Z,14.50
2018-10-03T16:57:27.995Z,14.60
2018-10-03T16:59:58.368Z,14.50
2018-10-03T17:02:28.337Z,14.50
2018-10-03T17:04:57.955Z,14.60
2018-10-03T17:07:27.746Z,14.50
2018-10-03T17:09:57.912Z,14.50
2018-10-03T17:12:27.323Z,14.50
2018-10-03T17:14:57.849Z,14.40
2018-10-03T17:17:28.307Z,14.40
2018-10-03T17:19:57.991Z,14.30
2018-10-03T17:22:31.079Z,14.20
2018-10-03T17:25:00.939Z,14.20
2018-10-03T17:27:37.339Z,14.10
2018-10-03T17:30:07.318Z,14.00
2018-10-03T17:32:37.140Z,13.90
2018-10-03T17:35:07.338Z,13.90
2018-10-03T17:37:37.135Z,13.80
2018-10-03T17:40:07.399Z,13.70
2018-10-03T17:42:38.227Z,13.60
2018-10-03T17:45:10.441Z,13.50
2018-10-03T17:47:40.693Z,13.40
2018-10-03T17:50:11.290Z,13.20
2018-10-03T17:52:44.113Z,13.10
2018-10-03T17:55:14.623Z,13.00
2018-10-03T17:57:46.478Z,12.90
2018-10-03T18:00:16.755Z,12.70
2018-10-03T18:02:48.672Z,12.60
2018-10-03T18:05:27.722Z,12.50
2018-10-03T18:07:57.517Z,12.40
2018-10-03T18:10:27.405Z,12.20
2018-10-03T18:13:00.721Z,12.10
2018-10-03T18:15:30.683Z,12.00
2018-10-03T18:18:00.448Z,11.90
2018-10-03T18:20:31.488Z,11.80
2018-10-03T18:23:01.730Z,11.60
2018-10-03T18:25:31.705Z,11.60
2018-10-03T18:28:08.964Z,11.50
2018-10-03T18:30:41.743Z,11.40
2018-10-03T18:33:14.227Z,11.40
2018-10-03T18:35:46.620Z,11.40
2018-10-03T18:38:22.924Z,11.40
2018-10-03T18:40:56.694Z,11.40
2018-10-03T18:43:29.571Z,11.40
2018-10-03T18:46:00.434Z,11.40
2018-10-03T18:48:30.912Z,11.40
2018-10-03T18:51:01.665Z,11.40
2018-10-03T18:53:33.327Z,11.30
2018-10-03T18:56:10.072Z,11.30
2018-10-03T18:58:42.349Z,11.20
2018-10-03T19:01:13.729Z,11.10
2018-10-03T19:03:47.917Z,11.00
2018-10-03T19:06:20.724Z,11.00
2018-10-03T19:08:55.485Z,10.90
2018-10-03T19:11:25.627Z,10.90
2018-10-03T19:13:56.534Z,10.80
2018-10-03T19:18:59.148Z,10.80
2018-10-03T19:21:30.169Z,10.60
2018-10-03T19:23:59.889Z,10.50
2018-10-03T19:26:30.695Z,10.40
2018-10-03T19:29:01.140Z,10.40
2018-10-03T19:31:31.142Z,10.30
2018-10-03T19:34:02.553Z,10.30
2018-10-03T19:36:32.546Z,10.20
2018-10-03T19:39:07.514Z,10.10
2018-10-03T19:41:39.066Z,10.10
2018-10-03T19:44:22.274Z,10.10
2018-10-03T19:46:52.766Z,10.00
2018-10-03T19:49:23.191Z,10.00
2018-10-03T19:51:54.766Z,9.90
2018-10-03T19:54:24.886Z,9.90
2018-10-03T19:56:55.129Z,9.90
2018-10-03T19:59:30.081Z,9.90
2018-10-03T20:02:01.386Z,9.90
2018-10-03T20:04:32.605Z,9.90
2018-10-03T20:07:05.747Z,10.00
2018-10-03T20:09:35.654Z,10.00
2018-10-03T20:12:05.714Z,10.10
2018-10-03T20:14:35.971Z,10.10
2018-10-03T20:17:06.699Z,10.20
2018-10-03T20:19:36.693Z,10.20
2018-10-03T20:22:10.263Z,10.20
2018-10-03T20:24:40.679Z,10.30
2018-10-03T20:27:11.915Z,10.30
2018-10-03T20:29:42.848Z,10.30
2018-10-03T20:32:12.696Z,10.30
2018-10-03T20:34:42.460Z,10.40
2018-10-03T20:37:13.843Z,10.50
2018-10-03T20:39:43.442Z,10.50
2018-10-03T20:42:13.908Z,10.60
2018-10-03T20:44:43.684Z,10.70
2018-10-03T20:47:13.236Z,10.80
2018-10-03T20:49:42.924Z,10.80
2018-10-03T20:52:13.004Z,10.90
2018-10-03T20:54:42.649Z,11.00
2018-10-03T20:57:13.381Z,11.00
2018-10-03T20:59:46.879Z,11.00
2018-10-03T21:02:16.952Z,11.10
2018-10-03T21:04:46.601Z,11.10
2018-10-03T21:07:16.215Z,11.10
2018-10-03T21:09:47.661Z,11.20
2018-10-03T21:12:17.404Z,11.20
2018-10-03T21:14:47.059Z,11.20
2018-10-03T21:17:17.292Z,11.20
2018-10-03T21:19:47.368Z,11.20
2018-10-03T21:22:17.752Z,11.30
2018-10-03T21:24:47.831Z,11.30
2018-10-03T21:27:19.022Z,11.20
2018-10-03T21:29:48.618Z,11.20
2018-10-03T21:32:18.382Z,11.20
2018-10-03T21:34:47.870Z,11.20
2018-10-03T21:37:17.684Z,11.10
2018-10-03T21:39:47.450Z,11.10
2018-10-03T21:42:17.157Z,11.10
2018-10-03T21:44:46.758Z,11.00
2018-10-03T21:47:17.300Z,11.00
2018-10-03T21:49:46.903Z,11.00
2018-10-03T21:52:16.305Z,11.00
2018-10-03T21:54:46.328Z,11.10
2018-10-03T21:57:15.854Z,11.10
2018-10-03T21:59:45.537Z,11.20
2018-10-03T22:02:15.040Z,11.20
2018-10-03T22:04:44.758Z,11.30
2018-10-03T22:07:15.276Z,11.30
2018-10-03T22:09:44.738Z,11.40
2018-10-03T22:12:14.363Z,11.40
2018-10-03T22:14:44.358Z,11.40
2018-10-03T22:17:19.971Z,11.40
2018-10-03T22:19:50.341Z,11.30
2018-10-03T22:22:20.139Z,11.40
2018-10-03T22:24:50.451Z,11.30
2018-10-03T22:27:20.133Z,11.30
2018-10-03T22:29:49.817Z,11.20
2018-10-03T22:32:22.264Z,11.20
